Time;durP1;ratioP1;P1;durP2;ratioP2;P2;SDS_P1;SDS_P2;PMS_P1;PMS_P2;Temp;Humidity;BMP_temperature;BMP_pressure;BME280_temperature;BME280_humidity;BME280_pressure;Samples;Min_cycle;Max_cycle;Signal;HPM_P1;HPM_P2
2022/10/21 00:02:46;;;;;;;;;;;;;;;14.37;100.00;98860.03;8394018;28;19932;-78
2022/10/21 00:06:47;;;;;;;;;;;;;;;14.32;100.00;98870.56;8401476;28;19928;-78
2022/10/21 00:10:59;;;;;;;;;;;;;;;14.31;100.00;98849.72;8395074;28;19928;-78
2022/10/21 00:15:02;;;;;;;;;;;;;;;14.28;100.00;98884.63;8415900;28;19928;-78
2022/10/21 00:19:03;;;;;;;;;;;;;;;14.28;100.00;98855.03;8414050;28;20014;-78
2022/10/21 00:23:04;;;;;;;;;;;;;;;14.27;100.00;98851.56;8413653;28;19932;-78
2022/10/21 00:27:06;;;;;;;;;;;;;;;14.26;100.00;98855.09;8415787;28;19950;-78
2022/10/21 00:31:09;;;;;;;;;;;;;;;14.21;100.00;98844.78;8390040;28;20019;-78
2022/10/21 00:35:11;;;;;;;;;;;;;;;14.16;100.00;98851.88;8416766;28;19993;-78
2022/10/21 00:39:12;;;;;;;;;;;;;;;14.11;100.00;98858.97;8410242;28;20050;-78
2022/10/21 00:43:48;;;;;;;;;;;;;;;14.06;100.00;98857.41;8424345;28;19924;-78
2022/10/21 00:48:28;;;;;;;;;;;;;;;14.03;100.00;98862.72;8408261;28;19924;-79
2022/10/21 01:07:36;;;;;;;;;;;;;;;13.88;100.00;98819.59;10368300;22;19924;-79
2022/10/21 01:11:56;;;;;;;;;;;;;;;13.84;100.00;98808.38;10337908;23;19981;-79
2022/10/21 01:16:19;;;;;;;;;;;;;;;13.79;100.00;98805.03;10307727;22;19931;-79
2022/10/21 01:20:42;;;;;;;;;;;;;;;13.68;100.00;98808.84;10239928;23;20007;-79
2022/10/21 01:24:52;;;;;;;;;;;;;;;13.63;100.00;98795.03;10240751;23;20035;-79
2022/10/21 01:28:54;;;;;;;;;;;;;;;13.57;100.00;98785.63;10240512;23;20003;-79
2022/10/21 01:33:05;;;;;;;;;;;;;;;13.51;100.00;98784.03;10233504;23;20370;-78
2022/10/21 01:37:37;;;;;;;;;;;;;;;13.49;100.00;98761.50;10238557;23;19931;-78
2022/10/21 01:41:50;;;;;;;;;;;;;;;13.45;100.00;98772.91;10160440;23;20283;-78
2022/10/21 01:45:58;;;;;;;;;;;;;;;13.40;100.00;98766.94;10209196;23;19924;-79
2022/10/21 01:50:21;;;;;;;;;;;;;;;13.39;100.00;98773.06;10240520;23;20307;-79
2022/10/21 01:54:27;;;;;;;;;;;;;;;13.34;100.00;98767.13;10242552;23;19924;-79
2022/10/21 01:58:33;;;;;;;;;;;;;;;13.30;100.00;98759.38;10215857;23;20220;-79
2022/10/21 02:02:37;;;;;;;;;;;;;;;13.26;100.00;98749.03;10230426;23;20302;-79
2022/10/21 02:06:39;;;;;;;;;;;;;;;13.22;100.00;98735.22;10205106;23;19951;-79
2022/10/21 02:10:44;;;;;;;;;;;;;;;13.19;100.00;98729.25;10236401;23;19959;-79
2022/10/21 02:14:48;;;;;;;;;;;;;;;13.13;100.00;98719.81;10185696;23;20002;-79
2022/10/21 02:18:50;;;;;;;;;;;;;;;13.11;100.00;98719.00;10179159;23;19924;-80
2022/10/21 02:22:52;;;;;;;;;;;;;;;13.06;100.00;98713.03;10210209;23;19946;-79
2022/10/21 02:26:53;;;;;;;;;;;;;;;13.07;100.00;98708.66;10210917;23;19995;-79
2022/10/21 02:31:01;;;;;;;;;;;;;;;13.05;100.00;98713.91;10203580;23;19932;-80
2022/10/21 02:35:08;;;;;;;;;;;;;;;13.01;100.00;98702.72;10210240;23;19971;-79
2022/10/21 02:39:18;;;;;;;;;;;;;;;12.98;100.00;98684.56;10210251;23;19932;-80
2022/10/21 02:43:45;;;;;;;;;;;;;;;12.97;100.00;98679.41;10236560;23;19920;-80
2022/10/21 02:47:48;;;;;;;;;;;;;;;12.97;100.00;98674.19;10196516;23;19955;-80
2022/10/21 02:51:49;;;;;;;;;;;;;;;12.94;100.00;98675.13;10210322;23;19924;-79
2022/10/21 02:55:51;;;;;;;;;;;;;;;12.94;100.00;98669.06;10209004;23;19920;-79
2022/10/21 02:59:52;;;;;;;;;;;;;;;12.93;100.00;98665.59;10210534;23;20019;-79
2022/10/21 03:03:54;;;;;;;;;;;;;;;12.93;100.00;98651.72;10226322;23;19936;-80
2022/10/21 03:07:55;;;;;;;;;;;;;;;12.93;100.00;98651.72;10135475;23;19922;-78
2022/10/21 03:11:56;;;;;;;;;;;;;;;12.93;100.00;98657.78;10154290;23;19920;-79
2022/10/21 03:15:58;;;;;;;;;;;;;;;12.94;100.00;98656.88;10122925;23;20380;-79
2022/10/21 03:19:59;;;;;;;;;;;;;;;12.96;100.00;98656.84;10155087;23;19956;-78
2022/10/21 03:24:01;;;;;;;;;;;;;;;12.94;100.00;98654.28;10131874;23;20015;-79
2022/10/21 03:28:04;;;;;;;;;;;;;;;12.93;100.00;98652.56;10156248;23;19927;-79
2022/10/21 03:32:05;;;;;;;;;;;;;;;12.90;100.00;98656.97;10123746;23;19925;-79
2022/10/21 03:36:07;;;;;;;;;;;;;;;12.91;100.00;98649.13;10180066;23;19986;-79
2022/10/21 03:40:08;;;;;;;;;;;;;;;12.92;100.00;98645.63;10155833;23;19998;-79
2022/10/21 03:44:12;;;;;;;;;;;;;;;12.94;100.00;98649.06;10132381;23;19925;-78
2022/10/21 03:48:14;;;;;;;;;;;;;;;12.97;100.00;98648.13;10147959;23;19920;-79
2022/10/21 03:52:15;;;;;;;;;;;;;;;12.98;100.00;98642.00;10131004;23;19924;-79
2022/10/21 03:56:17;;;;;;;;;;;;;;;12.99;100.00;98636.75;10155650;23;19992;-79
2022/10/21 04:00:19;;;;;;;;;;;;;;;12.99;100.00;98634.16;10154811;23;20316;-79
2022/10/21 04:04:20;;;;;;;;;;;;;;;12.98;100.00;98640.25;10182183;23;19925;-79
2022/10/21 04:08:22;;;;;;;;;;;;;;;13.02;100.00;98646.25;10203810;23;19983;-79
2022/10/21 04:12:24;;;;;;;;;;;;;;;13.04;100.00;98643.59;10204179;23;20792;-79
2022/10/21 04:16:25;;;;;;;;;;;;;;;13.06;100.00;98636.59;10203560;23;19920;-79
2022/10/21 04:20:27;;;;;;;;;;;;;;;13.10;100.00;98643.41;10203432;23;19991;-79
2022/10/21 04:24:28;;;;;;;;;;;;;;;13.11;100.00;98639.94;10204051;23;19931;-79
2022/10/21 04:28:30;;;;;;;;;;;;;;;13.13;100.00;98636.41;10179560;23;19936;-79
2022/10/21 04:32:31;;;;;;;;;;;;;;;13.18;100.00;98642.38;10204808;23;20235;-79
2022/10/21 04:36:33;;;;;;;;;;;;;;;13.20;100.00;98630.16;10229875;23;19928;-79
2022/10/21 04:40:35;;;;;;;;;;;;;;;13.22;100.00;98627.50;10230581;23;19925;-79
2022/10/21 04:44:38;;;;;;;;;;;;;;;13.23;100.00;98619.63;10203783;23;19943;-79
2022/10/21 04:48:39;;;;;;;;;;;;;;;13.24;100.00;98612.66;10178753;23;19970;-79
2022/10/21 04:52:41;;;;;;;;;;;;;;;13.25;100.00;98610.00;10229884;23;19920;-80
2022/10/21 04:56:43;;;;;;;;;;;;;;;13.27;100.00;98607.34;10202763;23;19959;-80
2022/10/21 05:00:44;;;;;;;;;;;;;;;13.27;100.00;98608.22;10197850;23;19995;-79
2022/10/21 05:04:46;;;;;;;;;;;;;;;13.28;100.00;98604.75;10204094;23;19939;-79
2022/10/21 05:08:50;;;;;;;;;;;;;;;13.35;100.00;98600.19;10203416;23;19928;-79
2022/10/21 05:12:52;;;;;;;;;;;;;;;13.57;100.00;98598.66;10179845;23;20207;-80
2022/10/21 05:17:16;;;;;;;;;;;;;;;13.71;100.00;98600.03;10122368;23;20295;-79
2022/10/21 05:21:25;;;;;;;;;;;;;;;13.86;100.00;98600.44;10204571;23;19924;-80
2022/10/21 05:25:38;;;;;;;;;;;;;;;13.98;100.00;98607.00;10137978;23;19935;-79
2022/10/21 05:29:52;;;;;;;;;;;;;;;14.06;100.00;98610.25;10205527;23;20409;-80
2022/10/21 05:34:21;;;;;;;;;;;;;;;14.16;100.00;98616.88;10157709;23;19924;-79
2022/10/21 05:38:39;;;;;;;;;;;;;;;14.26;100.00;98614.84;10230306;23;19934;-80
2022/10/21 05:42:45;;;;;;;;;;;;;;;14.34;100.00;98623.28;10206014;23;19959;-79
2022/10/21 05:47:09;;;;;;;;;;;;;;;14.41;100.00;98632.66;10183757;23;19951;-80
2022/10/21 05:51:25;;;;;;;;;;;;;;;14.47;100.00;98629.84;10211010;23;19924;-81
2022/10/21 05:55:26;;;;;;;;;;;;;;;14.50;100.00;98640.19;10238509;23;19904;-81
2022/10/21 05:59:29;;;;;;;;;;;;;;;14.54;100.00;98645.31;10262913;23;19975;-81
2022/10/21 06:03:31;;;;;;;;;;;;;;;14.65;100.00;98638.00;10227121;23;19920;-81
2022/10/21 06:07:33;;;;;;;;;;;;;;;14.70;100.00;98644.78;10282565;23;19924;-80
2022/10/21 06:11:34;;;;;;;;;;;;;;;14.74;100.00;98648.16;10223699;23;19924;-80
2022/10/21 06:15:36;;;;;;;;;;;;;;;14.79;100.00;98644.47;10219536;23;19931;-80
2022/10/21 06:19:37;;;;;;;;;;;;;;;14.82;100.00;98653.97;10262049;23;19944;-80
2022/10/21 06:23:39;;;;;;;;;;;;;;;14.83;100.00;98650.44;10202448;23;19928;-80
2022/10/21 06:27:40;;;;;;;;;;;;;;;14.85;100.00;98648.63;10210493;23;19978;-80
2022/10/21 06:31:42;;;;;;;;;;;;;;;14.88;100.00;98658.13;10245155;23;19924;-80
2022/10/21 06:35:44;;;;;;;;;;;;;;;14.89;100.00;98663.31;10228430;23;19904;-80
2022/10/21 06:39:45;;;;;;;;;;;;;;;14.92;100.00;98652.78;10215085;23;19930;-81
2022/10/21 06:43:46;;;;;;;;;;;;;;;14.92;100.00;98655.38;10254186;23;19963;-80
2022/10/21 06:47:48;;;;;;;;;;;;;;;14.93;100.00;98667.56;10217753;23;19927;-80
2022/10/21 06:51:50;;;;;;;;;;;;;;;14.92;100.00;98670.22;10227333;23;19940;-80
2022/10/21 06:55:58;;;;;;;;;;;;;;;14.92;100.00;98665.00;10258754;23;19924;-80
2022/10/21 07:00:00;;;;;;;;;;;;;;;14.93;100.00;98670.16;10242511;23;19927;-80
2022/10/21 07:04:02;;;;;;;;;;;;;;;14.94;100.00;98676.25;10192943;23;19989;-81
2022/10/21 07:08:03;;;;;;;;;;;;;;;14.93;100.00;98675.41;10164742;23;19920;-80
2022/10/21 07:12:07;;;;;;;;;;;;;;;14.94;100.00;98689.31;10168622;23;19924;-80
2022/10/21 07:16:20;;;;;;;;;;;;;;;14.94;100.00;98687.56;10175600;23;19928;-80
2022/10/21 07:20:22;;;;;;;;;;;;;;;14.94;100.00;98690.16;10188302;23;19932;-80
2022/10/21 07:24:23;;;;;;;;;;;;;;;14.96;100.00;98690.13;10177821;23;19965;-80
2022/10/21 07:28:25;;;;;;;;;;;;;;;14.98;100.00;98693.53;10171431;23;20460;-80
2022/10/21 07:32:26;;;;;;;;;;;;;;;14.99;100.00;98695.25;10164161;23;19936;-80
2022/10/21 07:36:29;;;;;;;;;;;;;;;15.02;100.00;98711.69;10193678;23;20052;-80
2022/10/21 07:40:31;;;;;;;;;;;;;;;15.01;100.00;98717.81;10139446;23;19928;-80
2022/10/21 07:44:32;;;;;;;;;;;;;;;15.04;100.00;98728.16;10142201;23;19986;-80
2022/10/21 07:48:34;;;;;;;;;;;;;;;15.04;100.00;98732.53;10146319;23;19993;-80
2022/10/21 07:52:37;;;;;;;;;;;;;;;15.05;100.00;98722.03;10207830;23;19916;-81
2022/10/21 07:56:48;;;;;;;;;;;;;;;15.06;100.00;98721.13;10230726;23;19909;-80
2022/10/21 08:00:49;;;;;;;;;;;;;;;15.06;100.00;98721.13;10196343;23;20664;-79
2022/10/21 08:04:57;;;;;;;;;;;;;;;15.08;100.00;98729.78;10171968;23;19999;-79
2022/10/21 08:09:02;;;;;;;;;;;;;;;15.09;100.00;98739.34;10222785;23;19935;-79
2022/10/21 08:13:07;;;;;;;;;;;;;;;15.08;100.00;98750.72;10201332;23;19924;-80
2022/10/21 08:17:29;;;;;;;;;;;;;;;15.08;100.00;98744.59;10231538;23;20417;-80
2022/10/21 08:22:00;;;;;;;;;;;;;;;15.10;100.00;98748.91;10224871;23;19920;-80
2022/10/21 08:26:40;;;;;;;;;;;;;;;15.12;100.00;98754.06;10222233;23;19939;-80
2022/10/21 08:30:42;;;;;;;;;;;;;;;15.14;100.00;98765.34;10171038;23;19999;-78
2022/10/21 08:34:43;;;;;;;;;;;;;;;15.15;100.00;98764.44;10199019;23;19928;-78
2022/10/21 08:38:45;;;;;;;;;;;;;;;15.16;100.00;98770.50;10187189;23;19955;-80
2022/10/21 08:42:47;;;;;;;;;;;;;;;15.15;100.00;98777.50;10184149;23;19959;-77
2022/10/21 08:46:52;;;;;;;;;;;;;;;15.15;100.00;98782.72;10194305;23;20375;-78
2022/10/21 08:50:55;;;;;;;;;;;;;;;15.19;100.00;98780.88;10227073;23;19924;-77
2022/10/21 08:55:00;;;;;;;;;;;;;;;15.24;100.00;98785.03;10201645;23;19981;-78
2022/10/21 08:59:02;;;;;;;;;;;;;;;15.30;100.00;98781.38;10201681;23;19982;-77
2022/10/21 09:03:10;;;;;;;;;;;;;;;15.30;100.00;98784.84;10193479;23;19924;-77
2022/10/21 09:07:11;;;;;;;;;;;;;;;15.34;100.00;98783.84;10163845;23;19983;-77
2022/10/21 09:11:33;;;;;;;;;;;;;;;15.38;100.00;98782.81;10179989;23;19925;-79
2022/10/21 09:15:53;;;;;;;;;;;;;;;15.41;100.00;98776.63;10150819;23;19945;-79
2022/10/21 09:20:08;;;;;;;;;;;;;;;15.42;100.00;98783.56;10156115;23;19975;-78
2022/10/21 09:24:11;;;;;;;;;;;;;;;15.43;100.00;98769.56;10156308;23;19928;-78
2022/10/21 09:28:14;;;;;;;;;;;;;;;15.47;100.00;98778.19;10154427;23;19940;-78
2022/10/21 09:32:30;;;;;;;;;;;;;;;15.49;100.00;98766.78;10124562;23;20260;-77
2022/10/21 09:36:36;;;;;;;;;;;;;;;15.58;100.00;98781.28;10155444;23;19971;-77
2022/10/21 09:40:37;;;;;;;;;;;;;;;15.72;100.00;98781.69;10155929;23;20178;-77
2022/10/21 09:44:39;;;;;;;;;;;;;;;15.90;100.00;98774.97;10127319;23;19924;-78
2022/10/21 09:48:42;;;;;;;;;;;;;;;16.11;100.00;98781.19;10173673;23;19995;-78
2022/10/21 09:53:07;;;;;;;;;;;;;;;16.34;100.00;98773.34;10135793;23;20229;-78
2022/10/21 09:57:22;;;;;;;;;;;;;;;16.47;100.00;98774.56;10132559;23;20343;-79
2022/10/21 10:01:24;;;;;;;;;;;;;;;16.65;100.00;98777.41;10130464;23;19947;-78
2022/10/21 10:05:32;;;;;;;;;;;;;;;16.77;100.00;98790.06;10153013;23;19929;-78
2022/10/21 10:09:35;;;;;;;;;;;;;;;16.89;100.00;98793.06;10154708;23;19924;-79
2022/10/21 10:13:40;;;;;;;;;;;;;;;16.97;100.00;98789.28;10180742;23;20377;-79
2022/10/21 10:17:41;;;;;;;;;;;;;;;16.87;100.00;98792.25;10147005;23;19928;-78
2022/10/21 10:21:43;;;;;;;;;;;;;;;16.91;100.00;98795.63;10178712;23;20053;-78
2022/10/21 10:25:48;;;;;;;;;;;;;;;16.94;100.00;98800.75;10153159;23;19925;-77
2022/10/21 10:29:54;;;;;;;;;;;;;;;17.02;100.00;98803.91;10163429;23;19983;-77
2022/10/21 10:34:02;;;;;;;;;;;;;;;17.06;100.00;98796.78;10144200;23;19971;-77
2022/10/21 10:38:04;;;;;;;;;;;;;;;17.11;100.00;98802.69;10177335;23;20284;-77
2022/10/21 10:42:06;;;;;;;;;;;;;;;17.21;100.00;98806.63;10178265;23;19921;-78
2022/10/21 10:46:10;;;;;;;;;;;;;;;17.37;100.00;98791.97;10154231;23;19995;-78
2022/10/21 10:50:31;;;;;;;;;;;;;;;17.46;100.00;98791.59;10201267;23;19928;-78
2022/10/21 10:54:32;;;;;;;;;;;;;;;17.74;100.00;98787.81;10177764;23;20576;-78
2022/10/21 10:58:35;;;;;;;;;;;;;;;18.07;100.00;98796.00;10228608;23;19920;-79
2022/10/21 11:03:06;;;;;;;;;;;;;;;18.14;95.20;98799.25;10221757;23;19948;-79
2022/10/21 11:07:11;;;;;;;;;;;;;;;17.96;94.52;98800.91;10179198;23;19924;-79
2022/10/21 11:11:23;;;;;;;;;;;;;;;18.05;95.21;98808.38;10222897;23;19931;-80
2022/10/21 11:15:33;;;;;;;;;;;;;;;18.04;93.85;98801.41;10191038;23;19931;-80
2022/10/21 11:19:44;;;;;;;;;;;;;;;18.18;94.48;98801.66;10202584;23;20587;-81
2022/10/21 11:23:45;;;;;;;;;;;;;;;18.32;93.91;98799.25;10204636;23;20276;-81
2022/10/21 11:27:50;;;;;;;;;;;;;;;18.54;95.03;98804.38;10180022;23;19925;-80
2022/10/21 11:32:10;;;;;;;;;;;;;;;18.56;92.40;98799.06;10222967;23;19957;-80
2022/10/21 11:36:19;;;;;;;;;;;;;;;18.53;90.87;98796.56;10179712;23;19924;-80
2022/10/21 11:40:20;;;;;;;;;;;;;;;18.65;92.42;98788.13;10235534;23;19956;-81
2022/10/21 11:44:40;;;;;;;;;;;;;;;18.66;92.06;98790.69;10207506;23;20747;-81
2022/10/21 11:49:00;;;;;;;;;;;;;;;18.54;90.40;98788.63;10177207;23;19924;-81
2022/10/21 11:53:20;;;;;;;;;;;;;;;18.54;90.38;98785.13;10207358;23;19920;-81
2022/10/21 11:57:27;;;;;;;;;;;;;;;18.50;90.52;98794.94;10220346;23;19924;-81
2022/10/21 12:01:36;;;;;;;;;;;;;;;18.75;90.02;98797.31;10268295;23;19924;-81
2022/10/21 12:05:45;;;;;;;;;;;;;;;18.77;90.10;98795.44;10270995;23;19924;-81
2022/10/21 12:09:54;;;;;;;;;;;;;;;18.82;88.19;98793.44;10238525;23;19908;-81
2022/10/21 12:14:05;;;;;;;;;;;;;;;18.90;88.49;98782.56;10241528;23;19931;-81
2022/10/21 12:18:11;;;;;;;;;;;;;;;19.02;87.20;98772.28;10236892;23;19924;-81
2022/10/21 12:22:13;;;;;;;;;;;;;;;19.28;87.86;98773.66;10267939;23;19935;-81
2022/10/21 12:26:39;;;;;;;;;;;;;;;19.43;85.85;98773.81;10231804;23;19967;-81
2022/10/21 12:30:55;;;;;;;;;;;;;;;19.49;85.01;98758.56;10207837;23;19924;-80
2022/10/21 12:35:00;;;;;;;;;;;;;;;19.52;83.55;98757.53;10266120;23;19924;-81
2022/10/21 12:39:01;;;;;;;;;;;;;;;19.61;83.72;98759.75;10263334;23;19921;-81
2022/10/21 12:43:02;;;;;;;;;;;;;;;19.68;82.70;98757.66;10277139;23;20352;-81
2022/10/21 12:47:20;;;;;;;;;;;;;;;19.79;83.28;98753.53;10236269;23;20001;-82
2022/10/21 12:51:24;;;;;;;;;;;;;;;19.80;80.14;98757.88;10212724;23;19924;-81
2022/10/21 12:55:27;;;;;;;;;;;;;;;19.95;82.41;98753.59;10276676;23;19936;-81
2022/10/21 12:59:36;;;;;;;;;;;;;;;20.00;80.70;98753.34;10247558;23;19951;-81
2022/10/21 13:03:43;;;;;;;;;;;;;;;20.06;81.20;98740.69;10242462;23;19921;-81
2022/10/21 13:08:04;;;;;;;;;;;;;;;19.88;79.08;98736.38;10233919;23;19921;-81
2022/10/21 13:12:08;;;;;;;;;;;;;;;19.73;80.45;98748.56;10235687;23;19920;-81
2022/10/21 13:16:19;;;;;;;;;;;;;;;19.52;79.75;98739.13;10231544;23;19947;-80
2022/10/21 13:20:21;;;;;;;;;;;;;;;19.55;80.98;98729.31;10218729;23;19924;-80
2022/10/21 13:24:30;;;;;;;;;;;;;;;19.57;80.94;98727.47;10248708;23;20010;-80
2022/10/21 13:28:32;;;;;;;;;;;;;;;19.59;79.91;98727.38;10244439;23;19952;-80
2022/10/21 13:32:37;;;;;;;;;;;;;;;19.66;81.36;98725.28;10214011;23;19920;-80
2022/10/21 13:36:42;;;;;;;;;;;;;;;19.59;80.87;98730.03;10244914;23;19989;-80
2022/10/21 13:40:46;;;;;;;;;;;;;;;19.54;82.23;98734.66;10238390;23;19955;-80
2022/10/21 13:44:52;;;;;;;;;;;;;;;19.50;81.08;98723.41;10213687;23;19951;-80
2022/10/21 13:48:53;;;;;;;;;;;;;;;19.60;82.29;98722.03;10236563;23;19942;-80
2022/10/21 13:52:55;;;;;;;;;;;;;;;19.69;81.84;98733.00;10208597;23;19925;-80
2022/10/21 13:57:04;;;;;;;;;;;;;;;19.71;81.33;98737.25;10203729;23;19955;-80
2022/10/21 14:01:07;;;;;;;;;;;;;;;19.78;81.80;98725.50;10199857;23;20517;-80
2022/10/21 14:05:24;;;;;;;;;;;;;;;19.71;80.85;98733.78;10180278;23;19955;-80
2022/10/21 14:09:27;;;;;;;;;;;;;;;19.66;81.37;98738.44;10205037;23;20383;-80
2022/10/21 14:13:34;;;;;;;;;;;;;;;19.57;80.98;98737.16;10231689;23;19924;-80
2022/10/21 14:17:38;;;;;;;;;;;;;;;19.47;81.57;98727.97;10147937;23;19992;-80
2022/10/21 14:21:42;;;;;;;;;;;;;;;19.40;82.85;98714.28;10182198;23;20007;-80
2022/10/21 14:25:46;;;;;;;;;;;;;;;19.35;83.77;98723.31;10182961;23;20436;-80
2022/10/21 14:29:48;;;;;;;;;;;;;;;19.28;84.17;98730.69;10182557;23;20022;-80
2022/10/21 14:33:49;;;;;;;;;;;;;;;19.19;83.94;98715.34;10124695;23;19984;-80
2022/10/21 14:37:53;;;;;;;;;;;;;;;19.15;83.71;98725.19;10156211;23;20518;-80
2022/10/21 14:42:00;;;;;;;;;;;;;;;19.05;83.99;98723.09;10157721;23;19960;-80
2022/10/21 14:46:03;;;;;;;;;;;;;;;18.98;85.32;98730.41;10157256;23;19986;-80
2022/10/21 14:50:05;;;;;;;;;;;;;;;18.88;86.11;98737.94;10207951;23;20002;-81
2022/10/21 14:54:24;;;;;;;;;;;;;;;18.79;86.93;98727.84;10211864;23;19925;-81
2022/10/21 14:58:31;;;;;;;;;;;;;;;18.69;87.38;98735.34;10205482;23;19999;-79
2022/10/21 15:02:34;;;;;;;;;;;;;;;18.58;87.03;98731.47;10178122;23;19980;-79
2022/10/21 15:06:36;;;;;;;;;;;;;;;18.45;87.32;98736.44;10201572;23;20537;-79
2022/10/21 15:10:37;;;;;;;;;;;;;;;18.33;87.68;98734.41;10203998;23;20025;-79
2022/10/21 15:14:39;;;;;;;;;;;;;;;18.26;88.54;98722.44;10179973;23;19932;-79
2022/10/21 15:18:51;;;;;;;;;;;;;;;18.19;88.79;98721.91;10196707;23;20284;-80
2022/10/21 15:22:53;;;;;;;;;;;;;;;18.09;89.34;98725.84;10202949;23;20021;-80
2022/10/21 15:26:57;;;;;;;;;;;;;;;17.98;90.83;98718.47;10203998;23;19924;-80
2022/10/21 15:30:58;;;;;;;;;;;;;;;17.87;91.70;98725.97;10222698;23;19935;-79
2022/10/21 15:35:00;;;;;;;;;;;;;;;17.78;92.32;98732.50;10178820;23;20304;-79
2022/10/21 15:39:01;;;;;;;;;;;;;;;17.72;92.76;98727.50;10198421;23;19967;-79
2022/10/21 15:43:09;;;;;;;;;;;;;;;17.57;93.28;98729.91;10225138;23;20026;-79
2022/10/21 15:47:10;;;;;;;;;;;;;;;17.54;93.88;98720.41;10191831;23;20360;-78
2022/10/21 15:51:12;;;;;;;;;;;;;;;17.49;94.00;98717.97;10197970;23;19927;-78
2022/10/21 15:55:14;;;;;;;;;;;;;;;17.45;94.49;98719.03;10197627;23;19928;-78
2022/10/21 15:59:16;;;;;;;;;;;;;;;17.42;94.48;98718.31;10197008;23;19932;-78
2022/10/21 16:03:18;;;;;;;;;;;;;;;17.38;94.78;98717.56;10166668;23;19943;-78
2022/10/21 16:07:21;;;;;;;;;;;;;;;17.32;95.04;98711.75;10196576;23;19983;-79
2022/10/21 16:11:22;;;;;;;;;;;;;;;17.25;95.42;98721.66;10173658;23;19925;-78
2022/10/21 16:15:41;;;;;;;;;;;;;;;17.14;96.12;98723.88;10160205;23;19987;-78
2022/10/21 16:19:42;;;;;;;;;;;;;;;17.08;96.60;98726.75;10197076;23;19920;-79
2022/10/21 16:23:44;;;;;;;;;;;;;;;17.01;97.24;98741.03;10199514;23;19991;-79
2022/10/21 16:27:46;;;;;;;;;;;;;;;16.93;97.64;98736.09;10197308;23;19924;-79
2022/10/21 16:31:56;;;;;;;;;;;;;;;16.82;98.35;98733.91;10168349;23;19998;-79
2022/10/21 16:35:58;;;;;;;;;;;;;;;16.76;98.96;98736.78;10150290;23;19924;-80
2022/10/21 16:40:00;;;;;;;;;;;;;;;16.73;99.04;98744.78;10178075;23;19925;-80
2022/10/21 16:44:02;;;;;;;;;;;;;;;16.66;99.17;98751.13;10185765;23;19920;-80
2022/10/21 16:48:03;;;;;;;;;;;;;;;16.55;99.50;98741.06;10144918;23;20319;-81
2022/10/21 16:52:05;;;;;;;;;;;;;;;16.49;99.58;98746.53;10193115;23;19921;-80
2022/10/21 16:56:06;;;;;;;;;;;;;;;16.42;99.90;98750.31;10172564;23;19921;-81
2022/10/21 17:00:10;;;;;;;;;;;;;;;16.34;100.00;98755.00;10174795;23;20157;-81
2022/10/21 17:04:14;;;;;;;;;;;;;;;16.23;100.00;98755.41;10177720;23;20051;-81
2022/10/21 17:08:15;;;;;;;;;;;;;;;16.19;100.00;98756.44;10198582;23;20391;-81
2022/10/21 17:12:17;;;;;;;;;;;;;;;16.11;100.00;98750.59;10175902;23;20368;-80
2022/10/21 17:16:19;;;;;;;;;;;;;;;16.07;100.00;98756.88;10137454;23;20312;-81
2022/10/21 17:20:20;;;;;;;;;;;;;;;16.01;100.00;98759.72;10148905;23;19924;-81
2022/10/21 17:24:22;;;;;;;;;;;;;;;15.97;100.00;98755.47;10139918;23;19925;-81
2022/10/21 17:28:23;;;;;;;;;;;;;;;15.93;100.00;98746.03;10168790;23;20692;-81
2022/10/21 17:32:24;;;;;;;;;;;;;;;15.87;100.00;98749.75;10152745;23;19982;-80
2022/10/21 17:36:26;;;;;;;;;;;;;;;15.80;100.00;98748.28;10165178;23;19924;-81
2022/10/21 17:40:28;;;;;;;;;;;;;;;15.74;100.00;98751.09;10164756;23;19951;-81
2022/10/21 17:44:29;;;;;;;;;;;;;;;15.69;100.00;98739.94;10157454;23;20313;-80
2022/10/21 17:48:31;;;;;;;;;;;;;;;15.60;100.00;98754.19;10125580;23;19928;-80
2022/10/21 17:52:33;;;;;;;;;;;;;;;15.52;100.00;98755.34;10156418;23;19935;-80
2022/10/21 17:56:34;;;;;;;;;;;;;;;15.48;100.00;98744.13;10182721;23;20375;-80
2022/10/21 18:00:38;;;;;;;;;;;;;;;15.50;100.00;98752.78;10148850;23;19920;-80
2022/10/21 18:04:45;;;;;;;;;;;;;;;15.50;100.00;98760.63;10162301;23;19963;-80
2022/10/21 18:08:46;;;;;;;;;;;;;;;15.52;100.00;98750.97;10207209;23;20028;-80
2022/10/21 18:12:47;;;;;;;;;;;;;;;15.58;100.00;98757.72;10232702;23;19935;-80
2022/10/21 18:16:49;;;;;;;;;;;;;;;15.60;100.00;98764.66;10175174;23;19982;-80
2022/10/21 18:20:50;;;;;;;;;;;;;;;15.51;100.00;98770.19;10207042;23;20197;-80
2022/10/21 18:24:52;;;;;;;;;;;;;;;15.46;100.00;98774.72;10206358;23;19982;-80
2022/10/21 18:28:55;;;;;;;;;;;;;;;15.40;100.00;98759.22;10231428;23;20003;-80
2022/10/21 18:32:57;;;;;;;;;;;;;;;15.38;100.00;98782.81;10167250;23;19987;-80
2022/10/21 18:36:59;;;;;;;;;;;;;;;15.32;100.00;98771.72;10155423;23;19951;-80
2022/10/21 18:41:05;;;;;;;;;;;;;;;15.29;100.00;98771.81;10182371;23;19925;-80
2022/10/21 18:45:20;;;;;;;;;;;;;;;15.25;100.00;98757.97;10173568;23;19983;-80
2022/10/21 18:49:21;;;;;;;;;;;;;;;15.23;100.00;98754.56;10155257;23;20574;-80
2022/10/21 18:53:23;;;;;;;;;;;;;;;15.23;100.00;98770.25;10157812;23;19925;-80
2022/10/21 18:57:24;;;;;;;;;;;;;;;15.20;100.00;98769.50;10132270;23;19976;-80
2022/10/21 19:01:26;;;;;;;;;;;;;;;15.16;100.00;98757.44;10187942;23;19947;-80
2022/10/21 19:05:27;;;;;;;;;;;;;;;15.13;100.00;98755.78;10204626;23;19924;-80
2022/10/21 19:09:28;;;;;;;;;;;;;;;15.09;100.00;98762.88;10204574;23;20010;-80
2022/10/21 19:13:30;;;;;;;;;;;;;;;15.07;100.00;98756.81;10180021;23;19930;-80
2022/10/21 19:17:31;;;;;;;;;;;;;;;15.10;100.00;98759.34;10197383;23;20003;-80
2022/10/21 19:21:33;;;;;;;;;;;;;;;15.14;100.00;98754.03;10231457;23;20267;-80
2022/10/21 19:25:34;;;;;;;;;;;;;;;15.13;100.00;98752.31;10204126;23;19978;-80
2022/10/21 19:29:35;;;;;;;;;;;;;;;15.10;100.00;98756.75;10204637;23;19924;-80
2022/10/21 19:33:37;;;;;;;;;;;;;;;15.06;100.00;98760.34;10197529;23;19933;-80
2022/10/21 19:37:38;;;;;;;;;;;;;;;15.06;100.00;98759.47;10180371;23;19928;-80
2022/10/21 19:41:40;;;;;;;;;;;;;;;15.06;100.00;98760.34;10205617;23;19982;-80
2022/10/21 19:45:42;;;;;;;;;;;;;;;15.10;100.00;98755.88;10223505;23;19998;-80
2022/10/21 19:49:43;;;;;;;;;;;;;;;15.10;100.00;98764.59;10231554;23;19924;-80
2022/10/21 19:53:45;;;;;;;;;;;;;;;15.10;100.00;98772.44;10180334;23;19928;-80
2022/10/21 19:57:46;;;;;;;;;;;;;;;15.06;100.00;98814.38;10230286;23;20511;-80
2022/10/21 20:01:48;;;;;;;;;;;;;;;15.02;100.00;98797.09;10197687;23;19990;-80
2022/10/21 20:05:49;;;;;;;;;;;;;;;15.05;100.00;98823.16;10204498;23;19978;-80
2022/10/21 20:09:50;;;;;;;;;;;;;;;15.05;100.00;98812.69;10203904;23;20015;-80
2022/10/21 20:13:52;;;;;;;;;;;;;;;15.08;100.00;98789.94;10200916;23;19986;-80
2022/10/21 20:17:53;;;;;;;;;;;;;;;15.09;100.00;98777.72;10192314;23;19921;-80
2022/10/21 20:21:55;;;;;;;;;;;;;;;15.06;100.00;98788.25;10178205;23;19928;-80
2022/10/21 20:25:57;;;;;;;;;;;;;;;15.02;100.00;98768.34;10231526;23;19924;-80
2022/10/21 20:29:58;;;;;;;;;;;;;;;14.95;100.00;98766.84;10201509;23;19924;-80
2022/10/21 20:33:59;;;;;;;;;;;;;;;14.92;100.00;98777.41;10194637;23;19934;-80
2022/10/21 20:38:01;;;;;;;;;;;;;;;14.87;100.00;98772.28;10226239;23;19924;-80
2022/10/21 20:42:02;;;;;;;;;;;;;;;14.84;100.00;98777.63;10178818;23;19928;-80
2022/10/21 20:46:05;;;;;;;;;;;;;;;14.79;100.00;98785.63;10172320;23;19920;-80
2022/10/21 20:50:06;;;;;;;;;;;;;;;14.77;100.00;98800.50;10203147;23;19967;-79
2022/10/21 20:54:10;;;;;;;;;;;;;;;14.75;100.00;98783.16;10202566;23;19940;-80
2022/10/21 20:58:11;;;;;;;;;;;;;;;14.71;100.00;98795.44;10177636;23;19982;-80
2022/10/21 21:02:13;;;;;;;;;;;;;;;14.69;100.00;98794.63;10204363;23;19928;-80
2022/10/21 21:06:14;;;;;;;;;;;;;;;14.66;100.00;98796.50;10231550;23;20325;-80